Time;durP1;ratioP1;P1;durP2;ratioP2;P2;SDS_P1;SDS_P2;PMS_P1;PMS_P2;Temp;Humidity;BMP_temperature;BMP_pressure;BME280_temperature;BME280_humidity;BME280_pressure;Samples;Min_cycle;Max_cycle;Signal;HPM_P1;HPM_P2
2023/03/27 00:02:21;;;;;;;7.97;1.48;;;;;;;3.34;100.00;101345.78;5029114;28;20048;-78
2023/03/27 00:04:49;;;;;;;10.50;2.22;;;;;;;3.33;100.00;101344.00;5052466;28;20057;-78
2023/03/27 00:07:18;;;;;;;10.50;3.08;;;;;;;3.34;100.00;101360.53;5065949;28;20040;-78
2023/03/27 00:09:46;;;;;;;7.70;1.60;;;;;;;3.34;100.00;101364.00;5050263;28;20071;-77
2023/03/27 00:12:13;;;;;;;8.30;1.75;;;;;;;3.35;100.00;101357.97;5065337;28;20438;-77
2023/03/27 00:14:40;;;;;;;5.95;1.70;;;;;;;3.35;100.00;101357.97;5063478;28;20062;-78
2023/03/27 00:17:09;;;;;;;4.55;1.30;;;;;;;3.33;100.00;101362.25;5068346;28;20048;-78
2023/03/27 00:19:37;;;;;;;9.80;1.60;;;;;;;3.32;100.00;101368.25;5008446;28;20048;-78
2023/03/27 00:22:04;;;;;;;10.23;1.42;;;;;;;3.31;100.00;101366.50;5025916;28;20059;-78
2023/03/27 00:24:33;;;;;;;9.40;2.25;;;;;;;3.30;100.00;101373.41;5054139;28;20045;-78
2023/03/27 00:27:00;;;;;;;8.23;1.65;;;;;;;3.28;100.00;101367.25;5050750;28;20044;-78
2023/03/27 00:29:28;;;;;;;5.95;1.75;;;;;;;3.28;100.00;101369.84;5063404;28;20048;-78
2023/03/27 00:31:55;;;;;;;6.07;1.85;;;;;;;3.28;100.00;101371.56;5030460;28;20064;-77
2023/03/27 00:34:22;;;;;;;9.55;1.75;;;;;;;3.26;100.00;101374.13;5019349;28;20518;-78
2023/03/27 00:36:52;;;;;;;7.95;2.08;;;;;;;3.24;100.00;101377.50;5049391;28;20052;-78
2023/03/27 00:39:19;;;;;;;5.47;1.67;;;;;;;3.21;100.00;101377.34;5045826;28;20068;-77
2023/03/27 00:41:47;;;;;;;5.05;1.70;;;;;;;3.21;100.00;101374.75;5071929;28;20048;-78
2023/03/27 00:44:24;;;;;;;7.22;1.95;;;;;;;3.22;100.00;101381.75;5080030;28;20048;-78
2023/03/27 00:46:54;;;;;;;3.80;1.48;;;;;;;3.22;100.00;101386.97;5065419;28;20644;-78
2023/03/27 00:49:23;;;;;;;5.75;1.30;;;;;;;3.22;100.00;101392.16;5033212;28;20056;-77
2023/03/27 00:51:52;;;;;;;7.40;2.08;;;;;;;3.25;100.00;101393.19;5050667;28;20075;-78
2023/03/27 00:54:28;;;;;;;3.92;1.52;;;;;;;3.28;100.00;101389.81;5046843;28;20052;-77
2023/03/27 00:56:59;;;;;;;3.80;1.38;;;;;;;3.28;100.00;101377.66;5043533;28;20056;-77
2023/03/27 00:59:31;;;;;;;5.82;1.55;;;;;;;3.27;100.00;101391.53;5053255;28;20052;-77
2023/03/27 01:02:01;;;;;;;7.57;1.85;;;;;;;3.26;100.00;101400.16;5058465;28;20067;-77
2023/03/27 01:04:30;;;;;;;3.65;1.45;;;;;;;3.24;100.00;101395.72;5041408;28;20074;-77
2023/03/27 01:06:59;;;;;;;6.05;1.50;;;;;;;3.22;100.00;101398.25;5065535;28;20053;-77
2023/03/27 01:09:26;;;;;;;5.18;1.70;;;;;;;3.19;100.00;101397.25;5041952;28;20045;-78
2023/03/27 01:12:18;;;;;;;6.22;1.92;;;;;;;3.18;100.00;101396.34;5045631;28;20041;-78
2023/03/27 01:14:58;;;;;;;3.63;1.50;;;;;;;3.19;100.00;101405.94;5070426;28;20044;-79
2023/03/27 01:17:49;;;;;;;7.18;1.30;;;;;;;3.21;100.00;101401.69;5042717;28;20048;-77
2023/03/27 01:20:16;;;;;;;4.40;1.40;;;;;;;3.23;100.00;101401.75;5015212;28;20388;-78
2023/03/27 01:22:59;;;;;;;5.47;1.50;;;;;;;3.25;100.00;101406.22;5063244;28;20048;-77
2023/03/27 01:25:44;;;;;;;9.43;1.55;;;;;;;3.24;100.00;101407.03;5071089;28;20048;-78
2023/03/27 01:28:33;;;;;;;12.43;1.70;;;;;;;3.22;100.00;101402.59;5048703;28;20057;-77
2023/03/27 01:31:20;;;;;;;8.00;1.42;;;;;;;3.19;100.00;101407.66;5066002;28;20059;-77
2023/03/27 01:34:14;;;;;;;5.82;2.00;;;;;;;3.16;100.00;101400.63;5050802;28;20047;-78
2023/03/27 01:36:50;;;;;;;7.13;1.60;;;;;;;3.12;100.00;101411.72;5021560;28;20048;-77
2023/03/27 01:39:18;;;;;;;3.42;1.35;;;;;;;3.07;100.00;101406.31;5067968;28;20048;-79
2023/03/27 01:42:03;;;;;;;7.75;1.70;;;;;;;3.05;100.00;101410.56;5052526;28;20212;-78
2023/03/27 01:44:30;;;;;;;15.10;2.58;;;;;;;3.04;100.00;101403.56;5055058;28;20041;-78
2023/03/27 01:47:27;;;;;;;7.50;1.38;;;;;;;3.02;100.00;101415.63;5067242;28;20053;-77
2023/03/27 01:50:10;;;;;;;8.90;1.83;;;;;;;3.00;100.00;101411.19;5042924;28;20049;-78
2023/03/27 01:52:41;;;;;;;7.72;1.65;;;;;;;2.99;100.00;101399.00;5033602;28;20557;-78
2023/03/27 01:55:17;;;;;;;5.75;1.40;;;;;;;2.99;100.00;101414.63;5056647;28;20514;-78
2023/03/27 01:57:59;;;;;;;2.95;1.30;;;;;;;2.99;100.00;101420.72;5065315;28;20052;-78
2023/03/27 02:00:29;;;;;;;5.10;1.77;;;;;;;2.99;100.00;101417.25;5059901;28;20049;-78
2023/03/27 02:03:21;;;;;;;4.07;1.65;;;;;;;3.00;100.00;101409.47;5054406;28;20052;-78
2023/03/27 02:06:02;;;;;;;6.50;1.85;;;;;;;3.03;100.00;101432.16;5013801;28;20052;-78
2023/03/27 02:08:33;;;;;;;;;;;;;;;3.05;100.00;101438.31;5040734;28;20052;-77
2023/03/27 02:11:25;;;;;;;7.70;1.85;;;;;;;3.10;100.00;101437.69;5062815;28;19924;-78
2023/03/27 02:14:10;;;;;;;8.05;1.70;;;;;;;3.12;100.00;101453.41;5048141;28;20056;-77
2023/03/27 02:16:44;;;;;;;4.78;1.52;;;;;;;3.10;100.00;101470.63;5051142;28;20690;-77
2023/03/27 02:19:19;;;;;;;5.97;1.60;;;;;;;3.00;100.00;101468.47;5054228;28;20053;-78
2023/03/27 02:21:46;;;;;;;4.90;1.48;;;;;;;2.85;100.00;101451.34;5015886;28;20059;-79
2023/03/27 02:24:18;;;;;;;4.25;1.20;;;;;;;2.71;100.00;101468.97;5026072;28;20140;-78
2023/03/27 02:26:52;;;;;;;4.38;1.60;;;;;;;2.62;100.00;101452.94;5062976;28;20525;-79
2023/03/27 02:29:51;;;;;;;7.70;1.63;;;;;;;2.54;100.00;101446.50;5052305;28;20056;-78
2023/03/27 02:32:55;;;;;;;4.05;1.38;;;;;;;2.49;100.00;101443.66;5051884;28;20056;-77
2023/03/27 02:35:39;;;;;;;3.28;1.45;;;;;;;2.46;100.00;101453.94;5065349;28;20055;-77
2023/03/27 02:38:22;;;;;;;3.53;1.60;;;;;;;2.42;100.00;101445.91;5024907;28;20589;-77
2023/03/27 02:40:56;;;;;;;6.18;1.48;;;;;;;2.38;100.00;101449.22;5064594;28;20048;-78
2023/03/27 02:44:10;;;;;;;4.60;1.58;;;;;;;2.34;100.00;101449.09;4989165;28;20058;-79
2023/03/27 02:47:06;;;;;;;2.67;1.15;;;;;;;2.32;100.00;101455.91;5054335;28;20783;-78
2023/03/27 02:49:50;;;;;;;6.45;1.55;;;;;;;2.29;100.00;101453.19;5048370;28;20056;-78
2023/03/27 02:52:25;;;;;;;4.35;1.63;;;;;;;2.26;100.00;101466.03;5034903;28;20044;-78
2023/03/27 02:55:05;;;;;;;5.15;1.30;;;;;;;2.23;100.00;101465.00;5060064;28;20048;-78
2023/03/27 02:57:40;;;;;;;2.95;1.38;;;;;;;2.20;100.00;101465.75;5048902;28;20044;-77
2023/03/27 03:00:43;;;;;;;4.68;1.40;;;;;;;2.13;100.00;101469.75;5066468;28;20878;-78
2023/03/27 03:03:43;;;;;;;5.05;1.65;;;;;;;2.09;100.00;101466.94;5064229;28;20051;-78
2023/03/27 03:06:30;;;;;;;5.40;1.50;;;;;;;2.04;100.00;101473.63;5067208;28;20048;-78
2023/03/27 03:09:00;;;;;;;6.90;1.58;;;;;;;2.00;100.00;101471.72;5030293;28;20059;-78
2023/03/27 03:11:34;;;;;;;8.00;1.80;;;;;;;1.99;100.00;101476.03;5067760;28;20059;-78
2023/03/27 03:14:11;;;;;;;4.63;1.50;;;;;;;1.97;100.00;101480.25;5070850;28;20045;-77
2023/03/27 03:16:39;;;;;;;3.08;1.63;;;;;;;1.98;100.00;101491.53;5065860;28;20068;-78
2023/03/27 03:19:06;;;;;;;5.95;2.17;;;;;;;1.97;100.00;101498.47;5068671;28;20055;-78
2023/03/27 03:21:35;;;;;;;6.45;2.72;;;;;;;1.99;100.00;101493.34;5049153;28;20052;-78
2023/03/27 03:24:03;;;;;;;16.42;2.42;;;;;;;2.01;100.00;101492.59;5007622;28;20052;-77
2023/03/27 03:26:30;;;;;;;10.55;1.92;;;;;;;2.04;100.00;101494.44;5032478;28;20045;-78
2023/03/27 03:28:59;;;;;;;7.65;1.60;;;;;;;2.05;100.00;101498.81;5067168;28;20056;-77
2023/03/27 03:31:42;;;;;;;5.82;1.85;;;;;;;2.09;100.00;101498.16;5063647;28;20044;-77
2023/03/27 03:34:15;;;;;;;5.57;1.98;;;;;;;2.10;100.00;101495.63;5053042;28;20033;-77
2023/03/27 03:36:47;;;;;;;9.20;2.28;;;;;;;2.13;100.00;101495.75;5064908;28;20123;-78
2023/03/27 03:39:21;;;;;;;5.18;1.90;;;;;;;2.17;100.00;101503.72;5048858;28;20063;-77
2023/03/27 03:41:49;;;;;;;3.72;1.75;;;;;;;2.19;100.00;101508.16;5052736;28;20048;-77
2023/03/27 03:44:17;;;;;;;5.15;1.90;;;;;;;2.20;100.00;101507.34;5049144;28;20044;-77
2023/03/27 03:46:45;;;;;;;5.68;1.98;;;;;;;2.21;100.00;101508.22;5062813;28;20059;-78
2023/03/27 03:49:19;;;;;;;5.63;1.70;;;;;;;2.24;100.00;101516.19;5046084;28;20064;-77
2023/03/27 03:51:46;;;;;;;6.10;2.10;;;;;;;2.25;100.00;101526.69;5051534;28;20055;-78
2023/03/27 03:54:30;;;;;;;13.88;3.45;;;;;;;2.25;100.00;101530.97;5041318;28;20048;-79
2023/03/27 03:56:58;;;;;;;9.90;2.10;;;;;;;2.19;100.00;101526.34;5006254;28;20475;-78
2023/03/27 03:59:26;;;;;;;7.18;1.70;;;;;;;2.11;100.00;101525.09;5065267;28;20060;-79
2023/03/27 04:02:28;;;;;;;6.72;1.73;;;;;;;2.03;100.00;101527.34;5013433;28;20049;-78
2023/03/27 04:05:06;;;;;;;7.55;2.33;;;;;;;1.94;100.00;101519.97;5030725;28;20049;-77
2023/03/27 04:07:36;;;;;;;8.95;2.00;;;;;;;1.88;100.00;101522.28;5038881;28;20202;-78
2023/03/27 04:10:18;;;;;;;8.77;2.45;;;;;;;1.84;100.00;101525.56;5043001;28;20084;-77
2023/03/27 04:12:47;;;;;;;8.15;2.40;;;;;;;1.84;100.00;101535.94;4996173;28;20037;-77
2023/03/27 04:15:29;;;;;;;9.07;2.08;;;;;;;1.85;100.00;101534.22;5061234;28;20384;-78
2023/03/27 04:18:13;;;;;;;11.77;2.40;;;;;;;1.84;100.00;101538.53;5051421;28;20056;-78
2023/03/27 04:20:41;;;;;;;9.68;2.50;;;;;;;1.86;100.00;101541.22;5039753;28;20102;-77
2023/03/27 04:23:12;;;;;;;10.13;2.33;;;;;;;1.85;100.00;101535.16;5037291;28;20071;-77
2023/03/27 04:25:40;;;;;;;9.10;2.67;;;;;;;1.84;100.00;101555.84;5029165;28;20484;-77
2023/03/27 04:28:15;;;;;;;11.57;2.30;;;;;;;1.84;100.00;101558.44;5003598;28;20609;-77
2023/03/27 04:30:49;;;;;;;14.32;2.33;;;;;;;1.80;100.00;101549.59;5065987;28;20066;-78
2023/03/27 04:33:45;;;;;;;3.88;1.70;;;;;;;1.78;100.00;101558.13;5056876;28;20071;-78
2023/03/27 04:36:36;;;;;;;;;;;;;;;1.74;100.00;101562.31;5027073;28;20067;-77
2023/03/27 04:39:09;;;;;;;6.32;2.20;;;;;;;1.71;100.00;101562.13;5033986;28;19920;-77
2023/03/27 04:41:37;;;;;;;7.47;2.25;;;;;;;1.70;100.00;101566.44;5042971;28;20044;-77
2023/03/27 04:44:05;;;;;;;10.18;2.65;;;;;;;1.66;100.00;101564.47;5019647;28;20511;-77
2023/03/27 04:46:33;;;;;;;11.90;2.38;;;;;;;1.66;100.00;101574.88;5053690;28;20100;-77
2023/03/27 04:49:06;;;;;;;8.13;1.92;;;;;;;1.67;100.00;101568.88;5062755;28;20052;-77
2023/03/27 04:51:47;;;;;;;11.05;2.40;;;;;;;1.68;100.00;101573.28;5057247;28;20052;-78
2023/03/27 04:54:17;;;;;;;8.35;2.13;;;;;;;1.67;100.00;101578.38;5022645;28;20499;-78
2023/03/27 04:56:45;;;;;;;6.03;1.60;;;;;;;1.68;100.00;101574.97;5062182;28;20055;-78
2023/03/27 04:59:17;;;;;;;5.65;1.38;;;;;;;1.72;100.00;101580.41;5014260;28;20079;-78
2023/03/27 05:01:56;;;;;;;4.88;1.60;;;;;;;1.79;100.00;101586.78;5023427;28;20068;-77
2023/03/27 05:04:44;;;;;;;4.75;1.27;;;;;;;1.89;100.00;101588.13;5070198;28;20063;-77
2023/03/27 05:07:20;;;;;;;4.03;1.20;;;;;;;2.00;100.00;101602.56;5033456;28;20063;-75
2023/03/27 05:09:47;;;;;;;2.97;1.23;;;;;;;2.08;100.00;101589.94;5042808;28;20048;-76
2023/03/27 05:12:15;;;;;;;4.22;1.45;;;;;;;2.13;100.00;101591.97;5037521;28;20048;-78
2023/03/27 05:14:51;;;;;;;3.58;1.15;;;;;;;2.22;100.00;101591.53;5006216;28;20056;-78
2023/03/27 05:17:43;;;;;;;3.90;1.35;;;;;;;2.26;100.00;101606.47;5041993;28;20048;-79
2023/03/27 05:20:15;;;;;;;7.22;1.77;;;;;;;2.30;100.00;101608.38;5052874;28;20533;-78
2023/03/27 05:22:43;;;;;;;7.38;1.58;;;;;;;2.36;100.00;101607.81;5066971;28;20063;-78
2023/03/27 05:25:26;;;;;;;5.78;1.60;;;;;;;2.43;100.00;101614.22;5064611;28;20065;-79
2023/03/27 05:27:54;;;;;;;6.80;1.80;;;;;;;2.48;100.00;101615.34;5035737;28;20051;-79
2023/03/27 05:30:25;;;;;;;;;;;;;;;2.52;100.00;101623.34;5041487;28;20056;-77
2023/03/27 05:33:13;;;;;;;3.97;1.45;;;;;;;2.55;100.00;101635.59;5056303;28;19928;-80
2023/03/27 05:35:41;;;;;;;8.05;1.60;;;;;;;2.61;100.00;101641.13;5065728;28;20554;-80
2023/03/27 05:38:11;;;;;;;5.03;1.33;;;;;;;2.64;100.00;101636.03;5052473;28;20040;-79
2023/03/27 05:41:05;;;;;;;10.63;2.03;;;;;;;2.62;100.00;101637.69;5067806;28;20053;-80
2023/03/27 05:43:37;;;;;;;5.78;1.38;;;;;;;2.61;100.00;101646.31;5036590;28;20052;-80
2023/03/27 05:46:05;;;;;;;2.90;1.20;;;;;;;2.57;100.00;101647.00;4996166;28;20041;-79
2023/03/27 05:48:33;;;;;;;4.28;1.30;;;;;;;2.54;100.00;101650.31;5057062;28;20063;-78
2023/03/27 05:51:04;;;;;;;4.13;1.30;;;;;;;2.51;100.00;101652.81;5067044;28;20064;-78
2023/03/27 05:53:35;;;;;;;3.80;1.60;;;;;;;2.49;100.00;101650.91;5067342;28;20052;-79
2023/03/27 05:56:17;;;;;;;2.65;1.02;;;;;;;2.48;100.00;101656.97;5053604;28;20287;-79
2023/03/27 05:58:57;;;;;;;2.33;1.02;;;;;;;2.46;100.00;101653.41;5049279;28;20052;-79
2023/03/27 06:01:25;;;;;;;2.22;1.00;;;;;;;2.46;100.00;101651.66;5039408;28;20506;-79
2023/03/27 06:03:55;;;;;;;3.30;1.33;;;;;;;2.49;100.00;101661.31;5020006;28;20567;-79
2023/03/27 06:06:27;;;;;;;5.55;1.17;;;;;;;2.53;100.00;101658.97;5043556;28;20044;-79
2023/03/27 06:08:58;;;;;;;1.92;0.90;;;;;;;2.64;100.00;101666.38;5047756;28;20043;-79
2023/03/27 06:11:43;;;;;;;4.70;1.42;;;;;;;2.75;100.00;101672.13;5027011;28;20519;-79
2023/03/27 06:14:11;;;;;;;7.70;1.67;;;;;;;2.83;100.00;101674.25;5058773;28;20068;-79
2023/03/27 06:16:59;;;;;;;6.43;1.70;;;;;;;2.95;100.00;101679.19;5008933;28;20048;-79
2023/03/27 06:19:44;;;;;;;8.13;1.60;;;;;;;2.99;100.00;101678.50;5043235;28;20052;-79
2023/03/27 06:22:11;;;;;;;3.97;1.15;;;;;;;3.02;100.00;101680.34;5044569;28;20040;-80
2023/03/27 06:24:40;;;;;;;4.75;1.08;;;;;;;3.01;100.00;101681.19;5038058;28;20549;-80
2023/03/27 06:27:09;;;;;;;5.22;1.63;;;;;;;2.97;100.00;101687.94;5067449;28;20040;-79
2023/03/27 06:29:40;;;;;;;9.15;1.67;;;;;;;2.99;100.00;101696.72;5017566;28;20091;-79
2023/03/27 06:32:08;;;;;;;8.57;1.50;;;;;;;3.02;100.00;101689.03;5061580;28;20052;-79
2023/03/27 06:34:46;;;;;;;6.50;2.47;;;;;;;3.07;100.00;101690.16;4991647;28;20067;-79
2023/03/27 06:37:54;;;;;;;9.55;1.80;;;;;;;3.16;100.00;101687.09;5027408;28;20064;-79
2023/03/27 06:40:26;;;;;;;11.07;1.70;;;;;;;3.25;100.00;101691.81;5049335;28;20048;-79
2023/03/27 06:43:08;;;;;;;4.57;1.60;;;;;;;3.32;100.00;101691.28;5063738;28;20053;-79
2023/03/27 06:45:49;;;;;;;6.28;1.98;;;;;;;3.41;100.00;101704.75;5029842;28;20041;-79
2023/03/27 06:48:31;;;;;;;3.92;1.63;;;;;;;3.50;100.00;101694.75;5016662;28;20068;-79
2023/03/27 06:51:02;;;;;;;9.35;3.08;;;;;;;3.57;100.00;101697.63;5041089;28;20057;-78
2023/03/27 06:53:29;;;;;;;7.90;1.75;;;;;;;3.62;100.00;101696.13;5041773;28;20056;-79
2023/03/27 06:56:04;;;;;;;7.50;1.58;;;;;;;3.72;100.00;101713.94;5061199;28;20411;-80
2023/03/27 06:58:51;;;;;;;8.50;2.60;;;;;;;3.84;100.00;101714.53;5056892;28;20067;-80
2023/03/27 07:01:24;;;;;;;8.70;1.63;;;;;;;4.00;100.00;101709.97;5045596;28;20060;-80
2023/03/27 07:04:21;;;;;;;6.13;1.38;;;;;;;4.22;100.00;101712.69;5023496;28;20061;-81
2023/03/27 07:07:07;;;;;;;10.50;1.95;;;;;;;4.39;100.00;101705.56;5019669;28;20040;-78
2023/03/27 07:09:38;;;;;;;;;;;;;;;4.45;100.00;101710.16;5028966;28;20048;-78
2023/03/27 07:12:10;;;;;;;11.80;1.67;;;;;;;4.46;100.00;101718.06;5036977;28;20410;-80
2023/03/27 07:14:39;;;;;;;7.35;1.90;;;;;;;4.55;100.00;101717.53;5039673;28;20071;-78
2023/03/27 07:17:07;;;;;;;6.72;1.75;;;;;;;4.79;100.00;101720.28;5046966;28;20071;-78
2023/03/27 07:19:48;;;;;;;6.10;1.60;;;;;;;5.01;100.00;101732.50;5001483;28;20609;-81
2023/03/27 07:22:17;;;;;;;9.00;2.17;;;;;;;5.18;100.00;101732.25;5057072;28;20064;-78
2023/03/27 07:24:44;;;;;;;8.32;1.98;;;;;;;5.19;100.00;101741.88;5017200;28;20052;-78
2023/03/27 07:27:11;;;;;;;11.65;2.13;;;;;;;5.16;100.00;101742.66;5048656;28;20047;-80
2023/03/27 07:29:40;;;;;;;5.57;1.77;;;;;;;4.97;100.00;101734.91;5030160;28;20047;-81
2023/03/27 07:32:09;;;;;;;8.18;1.40;;;;;;;4.81;100.00;101736.00;5025884;28;20049;-79
2023/03/27 07:34:41;;;;;;;7.53;1.88;;;;;;;4.87;100.00;101739.75;5050101;28;20057;-79
2023/03/27 07:37:13;;;;;;;4.55;1.73;;;;;;;5.17;100.00;101735.69;5000701;28;20060;-81
2023/03/27 07:39:57;;;;;;;3.63;1.23;;;;;;;5.64;100.00;101741.88;5058864;28;20059;-80
2023/03/27 07:42:27;;;;;;;2.88;1.27;;;;;;;6.03;100.00;101738.94;5035440;28;20048;-78
2023/03/27 07:45:01;;;;;;;2.30;1.00;;;;;;;6.23;100.00;101737.94;5043486;28;20048;-78
2023/03/27 07:47:31;;;;;;;2.72;1.10;;;;;;;6.41;100.00;101742.06;5036305;28;20033;-78
2023/03/27 07:49:58;;;;;;;3.60;1.13;;;;;;;6.62;100.00;101737.53;5058753;28;20056;-80
2023/03/27 07:52:26;;;;;;;3.20;1.40;;;;;;;6.96;100.00;101743.91;4999665;28;20052;-79
2023/03/27 07:54:58;;;;;;;4.72;1.60;;;;;;;7.20;100.00;101748.13;5027513;28;20083;-81
2023/03/27 07:57:44;;;;;;;4.72;1.85;;;;;;;7.42;100.00;101745.31;5038721;28;20464;-80
2023/03/27 08:00:31;;;;;;;9.40;2.50;;;;;;;7.51;100.00;101742.09;5058539;28;20048;-79
2023/03/27 08:03:09;;;;;;;6.35;1.58;;;;;;;7.61;100.00;101745.88;5054151;28;20053;-79
2023/03/27 08:05:44;;;;;;;5.40;0.98;;;;;;;7.79;100.00;101751.69;5060691;28;20530;-78
2023/03/27 08:08:15;;;;;;;8.18;1.85;;;;;;;7.93;100.00;101756.44;5015778;28;20045;-78
2023/03/27 08:10:46;;;;;;;4.32;1.30;;;;;;;8.22;100.00;101753.72;5020194;28;20045;-79
2023/03/27 08:13:17;;;;;;;6.97;1.35;;;;;;;8.26;100.00;101758.19;5059234;28;20049;-79
2023/03/27 08:15:44;;;;;;;5.60;1.60;;;;;;;8.15;100.00;101758.81;5047797;28;20041;-79
2023/03/27 08:18:24;;;;;;;4.70;1.20;;;;;;;7.97;100.00;101756.53;5039318;28;20075;-79
2023/03/27 08:20:57;;;;;;;5.80;1.40;;;;;;;7.85;100.00;101769.34;5052305;28;20492;-79
2023/03/27 08:23:30;;;;;;;3.28;1.30;;;;;;;7.70;100.00;101782.88;5018114;28;20056;-79
2023/03/27 08:26:15;;;;;;;9.38;1.75;;;;;;;7.68;100.00;101774.09;5043171;28;20059;-78
2023/03/27 08:28:52;;;;;;;5.60;1.80;;;;;;;7.75;100.00;101785.63;5047460;28;20065;-79
2023/03/27 08:31:22;;;;;;;8.30;1.30;;;;;;;7.83;100.00;101784.16;5042650;28;20049;-77
2023/03/27 08:33:52;;;;;;;5.50;1.52;;;;;;;7.68;100.00;101781.94;5051053;28;20044;-80
2023/03/27 08:36:24;;;;;;;6.32;1.63;;;;;;;7.64;100.00;101774.84;5041853;28;20040;-79
2023/03/27 08:38:54;;;;;;;8.05;1.67;;;;;;;7.73;100.00;101785.63;5011354;28;20060;-79
2023/03/27 08:41:41;;;;;;;6.15;1.35;;;;;;;7.63;100.00;101785.28;5032622;28;20048;-79
2023/03/27 08:44:18;;;;;;;8.27;1.60;;;;;;;7.49;100.00;101783.13;5070119;28;20044;-80
2023/03/27 08:46:54;;;;;;;4.05;1.30;;;;;;;7.46;100.00;101792.63;5042672;28;20052;-80
2023/03/27 08:49:28;;;;;;;4.97;1.02;;;;;;;7.62;100.00;101792.28;5054120;28;20045;-79
2023/03/27 08:52:31;;;;;;;5.72;1.52;;;;;;;7.88;96.33;101790.44;5076283;28;20049;-79
2023/03/27 08:55:17;;;;;;;3.22;0.82;;;;;;;7.85;88.47;101811.31;5047491;28;20408;-79
2023/03/27 08:57:55;;;;;;;5.82;1.30;;;;;;;7.78;91.02;101807.59;5057465;28;20781;-79
2023/03/27 09:00:32;;;;;;;1.88;1.13;;;;;;;7.90;89.08;101800.94;5046965;28;20056;-78
2023/03/27 09:03:26;;;;;;;6.85;1.63;;;;;;;7.71;95.75;101802.13;5063017;28;20056;-79
2023/03/27 09:06:09;;;;;;;7.05;2.10;;;;;;;7.22;98.32;101811.97;5074034;28;20562;-79
2023/03/27 09:08:49;;;;;;;8.90;1.67;;;;;;;6.71;100.00;101831.28;5010580;28;20093;-78
2023/03/27 09:11:26;;;;;;;5.53;1.50;;;;;;;6.31;100.00;101831.56;5032096;28;20045;-79
2023/03/27 09:14:09;;;;;;;3.85;1.33;;;;;;;6.05;100.00;101836.75;5059206;28;20056;-79
2023/03/27 09:16:48;;;;;;;1.52;1.00;;;;;;;6.06;100.00;101841.13;5057083;28;20845;-78
2023/03/27 09:19:48;;;;;;;3.65;1.63;;;;;;;6.09;100.00;101838.63;5059867;28;20052;-78
2023/03/27 09:22:24;;;;;;;3.90;1.17;;;;;;;6.12;100.00;101837.84;5061467;28;20048;-79
2023/03/27 09:25:18;;;;;;;5.28;1.42;;;;;;;6.18;100.00;101836.38;5027223;28;20048;-79
2023/03/27 09:27:48;;;;;;;7.53;1.50;;;;;;;6.38;100.00;101841.44;5047831;28;20099;-79
2023/03/27 09:30:39;;;;;;;4.30;1.30;;;;;;;6.58;100.00;101840.41;5051787;28;20052;-80
2023/03/27 09:33:13;;;;;;;8.20;1.60;;;;;;;6.59;100.00;101842.19;5038823;28;20057;-79
2023/03/27 09:35:43;;;;;;;4.75;1.20;;;;;;;6.60;100.00;101851.84;5037899;28;20049;-79
2023/03/27 09:38:23;;;;;;;3.50;1.17;;;;;;;6.63;100.00;101851.03;5043742;28;20045;-78
2023/03/27 09:41:00;;;;;;;6.28;1.42;;;;;;;6.65;100.00;101857.22;5020980;28;20044;-79
2023/03/27 09:43:44;;;;;;;4.28;0.95;;;;;;;6.54;100.00;101856.88;5047360;28;20048;-79
2023/03/27 09:46:18;;;;;;;1.95;1.05;;;;;;;6.39;100.00;101864.13;5059999;28;20053;-79
2023/03/27 09:49:18;;;;;;;7.43;1.52;;;;;;;6.30;100.00;101863.84;5062853;28;20442;-79
2023/03/27 09:51:58;;;;;;;4.53;1.20;;;;;;;6.31;100.00;101855.13;5055989;28;20467;-79
2023/03/27 09:54:58;;;;;;;5.95;1.73;;;;;;;6.43;100.00;101861.72;5051112;28;20056;-79
2023/03/27 09:57:36;;;;;;;6.68;1.10;;;;;;;6.53;100.00;101855.06;5012752;28;20056;-79
2023/03/27 10:00:23;;;;;;;7.22;1.30;;;;;;;6.71;100.00;101867.03;5041609;28;20052;-79
2023/03/27 10:03:00;;;;;;;4.38;1.40;;;;;;;6.74;96.27;101875.00;5054295;28;20048;-79
2023/03/27 10:05:30;;;;;;;7.38;1.08;;;;;;;6.63;96.44;101874.63;5067434;28;20048;-79
2023/03/27 10:07:58;;;;;;;2.42;0.80;;;;;;;6.57;96.87;101883.16;5061763;28;20040;-79
2023/03/27 10:10:53;;;;;;;7.45;1.45;;;;;;;6.53;100.00;101883.00;5041254;28;20051;-79
2023/03/27 10:13:42;;;;;;;3.28;1.02;;;;;;;6.62;100.00;101868.50;4992424;28;20071;-79
2023/03/27 10:16:10;;;;;;;5.28;1.30;;;;;;;6.61;99.71;101877.16;5061696;28;20063;-79
2023/03/27 10:18:52;;;;;;;3.42;1.25;;;;;;;6.52;98.46;101889.97;5052417;28;20048;-79
2023/03/27 10:21:38;;;;;;;4.60;1.88;;;;;;;6.47;96.31;101901.09;5051628;28;20063;-79
2023/03/27 10:24:19;;;;;;;5.20;1.50;;;;;;;6.35;95.91;101889.34;5041358;28;20060;-79
2023/03/27 10:27:17;;;;;;;4.78;1.15;;;;;;;6.17;98.78;101899.13;5062002;28;20438;-79
2023/03/27 10:30:31;;;;;;;10.63;1.20;;;;;;;6.15;100.00;101890.31;5017741;28;20439;-79
2023/03/27 10:33:35;;;;;;;3.83;1.27;;;;;;;6.34;100.00;101895.41;5058529;28;20049;-80
2023/03/27 10:36:26;;;;;;;6.90;1.45;;;;;;;6.45;99.48;101898.44;5052882;28;20048;-78
2023/03/27 10:38:59;;;;;;;6.15;1.13;;;;;;;6.59;95.23;101910.28;5057617;28;20898;-78
2023/03/27 10:41:39;;;;;;;4.93;1.40;;;;;;;6.56;94.33;101899.72;5059795;28;20040;-78
2023/03/27 10:44:16;;;;;;;7.78;1.20;;;;;;;6.44;93.46;101909.72;5051496;28;20052;-78
2023/03/27 10:46:51;;;;;;;5.65;1.63;;;;;;;6.42;94.84;101914.91;5030010;28;20059;-78
2023/03/27 10:49:29;;;;;;;7.15;1.60;;;;;;;6.51;95.10;101909.13;5050049;28;20396;-79
2023/03/27 10:52:13;;;;;;;3.28;1.27;;;;;;;6.63;93.00;101914.81;5043292;28;20049;-78
2023/03/27 10:54:59;;;;;;;4.25;1.13;;;;;;;6.72;92.32;101918.59;5060497;28;20063;-79
2023/03/27 10:57:29;;;;;;;3.55;1.13;;;;;;;6.89;92.65;101913.97;5063036;28;20041;-79
2023/03/27 11:00:21;;;;;;;10.10;1.85;;;;;;;7.02;91.07;101919.66;5025915;28;20049;-79
2023/03/27 11:03:22;;;;;;;9.20;1.70;;;;;;;7.07;90.27;101918.94;5048045;28;20044;-79
2023/03/27 11:05:59;;;;;;;7.85;1.75;;;;;;;7.17;92.12;101921.94;5076209;28;20057;-79
2023/03/27 11:08:41;;;;;;;4.03;1.45;;;;;;;7.23;90.44;101910.78;5058228;28;20159;-79
2023/03/27 11:11:21;;;;;;;5.35;1.30;;;;;;;7.21;84.96;101918.56;5050014;28;20052;-78
2023/03/27 11:13:53;;;;;;;4.10;1.23;;;;;;;7.25;88.96;101922.19;5047688;28;20067;-78
2023/03/27 11:16:40;;;;;;;4.63;1.23;;;;;;;7.30;87.27;101928.50;5026258;28;20051;-78
2023/03/27 11:19:48;;;;;;;5.65;1.60;;;;;;;7.33;87.10;101939.06;5052624;28;20059;-81
2023/03/27 11:22:40;;;;;;;5.25;1.23;;;;;;;7.03;88.27;101941.53;5062553;28;20056;-80
2023/03/27 11:25:25;;;;;;;5.43;1.55;;;;;;;6.94;90.30;101947.34;5059175;28;20049;-80
2023/03/27 11:28:17;;;;;;;7.88;1.80;;;;;;;6.96;88.42;101945.69;5046289;28;20036;-80
2023/03/27 11:30:51;;;;;;;4.85;1.20;;;;;;;6.99;82.08;101944.88;5049888;28;20052;-79
2023/03/27 11:33:34;;;;;;;3.42;1.55;;;;;;;7.03;83.76;101946.75;5016474;28;20037;-80
2023/03/27 11:36:16;;;;;;;5.22;1.48;;;;;;;7.06;85.72;101939.03;5061449;28;20060;-79
2023/03/27 11:39:12;;;;;;;5.55;1.65;;;;;;;7.19;87.80;101950.84;5052550;28;20044;-80
2023/03/27 11:41:50;;;;;;;6.15;1.20;;;;;;;7.29;88.38;101959.91;5048788;28;20044;-80
2023/03/27 11:44:19;;;;;;;3.85;1.20;;;;;;;7.37;87.97;101961.97;5064020;28;20045;-80
2023/03/27 11:47:36;;;;;;;6.03;1.20;;;;;;;7.34;85.72;101964.47;5009626;28;20078;-79
2023/03/27 11:50:22;;;;;;;12.55;2.03;;;;;;;7.19;81.93;101956.97;5049182;28;20071;-80
2023/03/27 11:53:18;;;;;;;7.35;1.75;;;;;;;7.26;85.49;101954.53;5048942;28;20103;-80
2023/03/27 11:56:23;;;;;;;3.92;1.23;;;;;;;7.31;85.47;101971.34;5059689;28;20063;-79
2023/03/27 11:59:36;;;;;;;5.47;1.48;;;;;;;7.17;82.36;101965.63;5050334;28;20388;-80
2023/03/27 12:02:16;;;;;;;9.55;1.60;;;;;;;6.97;83.67;101976.25;5041967;28;20499;-79
2023/03/27 12:04:59;;;;;;;4.65;1.50;;;;;;;6.97;72.91;101978.00;5062806;28;20440;-79
2023/03/27 12:08:03;;;;;;;2.53;0.98;;;;;;;7.09;79.06;101981.09;5049826;28;20065;-79
2023/03/27 12:10:34;;;;;;;11.00;1.90;;;;;;;7.15;80.23;101976.03;5066506;28;20056;-78
2023/03/27 12:13:52;;;;;;;8.82;1.50;;;;;;;7.20;75.48;101984.06;5056131;28;20063;-79
2023/03/27 12:17:00;;;;;;;7.05;1.27;;;;;;;7.30;79.68;101988.81;5054060;28;20044;-79
2023/03/27 12:20:05;;;;;;;4.65;1.33;;;;;;;7.25;83.82;101992.09;4997512;28;20037;-79